Time;durP1;ratioP1;P1;durP2;ratioP2;P2;SDS_P1;SDS_P2;PMS_P1;PMS_P2;Temp;Humidity;BMP_temperature;BMP_pressure;BME280_temperature;BME280_humidity;BME280_pressure;Samples;Min_cycle;Max_cycle;Signal;HPM_P1;HPM_P2
2021/05/04 00:02:01;;;;;;;3.75;1.10;;;7.00;99.90;;;;;;5026424;28;20224;-66
2021/05/04 00:04:27;;;;;;;4.47;1.70;;;7.00;99.90;;;;;;5032930;28;20178;-66
2021/05/04 00:06:52;;;;;;;3.63;1.20;;;7.10;99.90;;;;;;5029284;28;20182;-65
2021/05/04 00:09:18;;;;;;;3.33;0.83;;;7.00;99.90;;;;;;5013595;28;20663;-66
2021/05/04 00:11:44;;;;;;;4.80;1.60;;;7.00;99.90;;;;;;5030148;28;20270;-66
2021/05/04 00:14:10;;;;;;;3.30;0.83;;;7.10;99.90;;;;;;5033257;28;20404;-65
2021/05/04 00:16:35;;;;;;;3.40;1.27;;;7.10;99.90;;;;;;5017438;28;20171;-67
2021/05/04 00:19:01;;;;;;;4.03;1.43;;;7.00;99.90;;;;;;5022663;28;20201;-66
2021/05/04 00:21:27;;;;;;;3.30;0.90;;;6.90;99.90;;;;;;5031189;28;20292;-66
2021/05/04 00:23:52;;;;;;;3.30;0.73;;;7.00;99.90;;;;;;5033264;28;20253;-66
2021/05/04 00:26:18;;;;;;;4.70;0.90;;;6.90;99.90;;;;;;5021026;28;20213;-67
2021/05/04 00:28:44;;;;;;;3.00;0.80;;;7.00;99.90;;;;;;5033057;28;20656;-65
2021/05/04 00:31:09;;;;;;;3.00;0.70;;;7.10;99.90;;;;;;5031908;28;20702;-65
2021/05/04 00:33:35;;;;;;;5.60;1.00;;;7.20;99.90;;;;;;5013412;28;20171;-66
2021/05/04 00:36:01;;;;;;;3.70;0.83;;;7.30;99.90;;;;;;5020837;28;20253;-66
2021/05/04 00:38:27;;;;;;;3.57;1.00;;;7.30;99.90;;;;;;5032707;28;20429;-66
2021/05/04 00:40:53;;;;;;;3.93;1.50;;;7.40;99.90;;;;;;5031679;28;20190;-66
2021/05/04 00:43:25;;;;;;;4.33;1.60;;;7.40;99.90;;;;;;5032640;28;20262;-66
2021/05/04 00:45:51;;;;;;;4.32;1.05;;;7.50;99.90;;;;;;5026501;28;20425;-66
2021/05/04 00:48:16;;;;;;;3.37;1.00;;;7.60;99.90;;;;;;5022355;28;20648;-66
2021/05/04 00:50:42;;;;;;;3.30;0.83;;;7.60;99.90;;;;;;5032039;28;20436;-65
2021/05/04 00:53:07;;;;;;;4.30;1.37;;;7.70;99.90;;;;;;5016752;28;20630;-66
2021/05/04 00:55:33;;;;;;;3.40;1.00;;;7.70;99.90;;;;;;5016627;28;20323;-66
2021/05/04 00:58:01;;;;;;;4.30;1.00;;;7.70;99.90;;;;;;5016202;28;20194;-66
2021/05/04 01:00:27;;;;;;;4.55;1.83;;;7.70;99.90;;;;;;5016950;28;20394;-66
2021/05/04 01:02:55;;;;;;;3.83;1.65;;;7.70;99.90;;;;;;5035741;28;20292;-66
2021/05/04 01:05:20;;;;;;;3.55;1.20;;;7.60;99.90;;;;;;5035899;28;20643;-66
2021/05/04 01:07:46;;;;;;;3.80;0.77;;;7.60;99.90;;;;;;5034938;28;20258;-67
2021/05/04 01:10:12;;;;;;;3.57;1.17;;;7.50;99.90;;;;;;5036271;28;20641;-66
2021/05/04 01:12:37;;;;;;;3.40;0.80;;;7.60;99.90;;;;;;5018323;28;20606;-67
2021/05/04 01:15:04;;;;;;;3.83;0.93;;;7.60;99.90;;;;;;5035103;28;20265;-67
2021/05/04 01:17:30;;;;;;;5.18;1.55;;;7.60;99.90;;;;;;5034822;28;20506;-65
2021/05/04 01:19:56;;;;;;;10.15;1.70;;;7.70;99.90;;;;;;5035966;28;20609;-67
2021/05/04 01:22:22;;;;;;;3.05;0.70;;;7.70;99.90;;;;;;5016848;28;20198;-66
2021/05/04 01:24:48;;;;;;;3.57;0.83;;;7.80;99.70;;;;;;5016097;28;20290;-66
2021/05/04 01:27:15;;;;;;;3.67;1.23;;;7.80;99.40;;;;;;5032429;28;20960;-67
2021/05/04 01:29:41;;;;;;;3.88;1.05;;;7.90;99.30;;;;;;5016880;28;20208;-66
2021/05/04 01:32:07;;;;;;;3.70;1.17;;;7.90;99.00;;;;;;5031162;28;20183;-66
2021/05/04 01:34:33;;;;;;;4.57;1.48;;;8.00;99.00;;;;;;5035782;28;20206;-67
2021/05/04 01:36:59;;;;;;;3.70;1.17;;;8.20;98.20;;;;;;5021065;28;20205;-66
2021/05/04 01:39:45;;;;;;;3.33;1.23;;;8.30;97.70;;;;;;5016810;28;20203;-65
2021/05/04 01:42:16;;;;;;;3.10;0.90;;;8.30;97.50;;;;;;5030130;28;20199;-68
2021/05/04 01:44:42;;;;;;;4.05;0.82;;;8.40;97.60;;;;;;5015654;28;20271;-68
2021/05/04 01:47:09;;;;;;;4.13;1.63;;;8.40;97.50;;;;;;5029129;28;20700;-67
2021/05/04 01:49:35;;;;;;;4.90;1.33;;;8.40;97.00;;;;;;5035287;28;20199;-66
2021/05/04 01:52:02;;;;;;;3.40;1.00;;;8.40;96.80;;;;;;5034259;28;20250;-66
2021/05/04 01:54:27;;;;;;;3.10;0.70;;;8.50;96.70;;;;;;5035086;28;20420;-66
2021/05/04 01:56:57;;;;;;;4.50;1.27;;;8.50;96.20;;;;;;5033963;28;20518;-67
2021/05/04 01:59:23;;;;;;;3.80;1.50;;;8.60;95.90;;;;;;5034366;28;20482;-67
2021/05/04 02:01:49;;;;;;;3.85;1.45;;;8.70;95.70;;;;;;5024672;28;20206;-65
2021/05/04 02:04:15;;;;;;;4.60;1.30;;;8.80;95.40;;;;;;5015263;28;20167;-67
2021/05/04 02:06:42;;;;;;;3.30;1.07;;;8.80;95.70;;;;;;5017540;28;20520;-67
2021/05/04 02:09:09;;;;;;;3.40;1.50;;;8.80;95.20;;;;;;5015241;28;20198;-66
2021/05/04 02:11:36;;;;;;;5.03;2.10;;;8.90;95.10;;;;;;5021833;28;20237;-68
2021/05/04 02:14:02;;;;;;;4.15;1.25;;;9.00;94.90;;;;;;5034480;28;20177;-65
2021/05/04 02:16:28;;;;;;;4.75;1.35;;;9.10;94.70;;;;;;5031690;28;20178;-67
2021/05/04 02:18:54;;;;;;;3.50;0.80;;;9.10;94.30;;;;;;5034773;28;20241;-65
2021/05/04 02:21:20;;;;;;;4.00;1.25;;;9.30;94.10;;;;;;5017435;28;20602;-65
2021/05/04 02:23:47;;;;;;;3.92;1.52;;;9.30;93.90;;;;;;5014899;28;20186;-67
2021/05/04 02:26:14;;;;;;;3.60;1.40;;;9.50;93.50;;;;;;5029384;28;20193;-66
2021/05/04 02:28:39;;;;;;;3.25;1.15;;;9.60;93.30;;;;;;5049271;28;20684;-65
2021/05/04 02:31:07;;;;;;;3.33;1.07;;;9.60;93.50;;;;;;5034083;28;20184;-66
2021/05/04 02:33:34;;;;;;;3.22;1.10;;;9.60;93.30;;;;;;5034596;28;20623;-67
2021/05/04 02:35:59;;;;;;;3.85;1.38;;;9.60;93.20;;;;;;5021295;28;20265;-66
2021/05/04 02:38:25;;;;;;;3.13;0.77;;;9.60;93.20;;;;;;5026951;28;20300;-66
2021/05/04 02:40:51;;;;;;;2.97;0.70;;;9.70;93.30;;;;;;5023142;28;20731;-66
2021/05/04 02:43:17;;;;;;;4.00;1.02;;;9.70;93.20;;;;;;5014740;28;20408;-66
2021/05/04 02:45:42;;;;;;;4.80;1.10;;;9.70;93.00;;;;;;5023220;28;20201;-65
2021/05/04 02:48:08;;;;;;;3.20;0.93;;;9.80;92.90;;;;;;5034047;28;20186;-64
2021/05/04 02:50:34;;;;;;;3.27;0.93;;;9.70;93.00;;;;;;5026349;28;20187;-65
2021/05/04 02:53:00;;;;;;;4.70;2.13;;;9.70;92.70;;;;;;5025364;28;20433;-66
2021/05/04 02:55:26;;;;;;;3.73;0.90;;;9.80;92.70;;;;;;5028387;28;20636;-67
2021/05/04 02:57:51;;;;;;;4.47;1.60;;;9.70;92.90;;;;;;5013824;28;20184;-65
2021/05/04 03:00:19;;;;;;;3.20;1.07;;;9.70;93.00;;;;;;5016313;28;20660;-66
2021/05/04 03:02:46;;;;;;;3.10;0.82;;;9.70;93.30;;;;;;5014151;28;20212;-65
2021/05/04 03:05:11;;;;;;;4.03;0.98;;;9.60;93.00;;;;;;5016783;28;20704;-66
2021/05/04 03:07:37;;;;;;;3.70;1.60;;;9.60;93.00;;;;;;5032835;28;20181;-66
2021/05/04 03:10:04;;;;;;;3.03;0.83;;;9.60;92.80;;;;;;5032489;28;20184;-67
2021/05/04 03:12:30;;;;;;;4.00;1.33;;;9.60;93.20;;;;;;5013886;28;20173;-65
2021/05/04 03:14:56;;;;;;;3.83;1.47;;;9.60;92.80;;;;;;5014353;28;20227;-67
2021/05/04 03:17:21;;;;;;;3.60;1.13;;;9.60;92.70;;;;;;5032727;28;20690;-67
2021/05/04 03:19:47;;;;;;;3.27;1.13;;;9.60;92.70;;;;;;5033733;28;20660;-65
2021/05/04 03:22:13;;;;;;;10.10;1.77;;;9.60;92.90;;;;;;5024287;28;20214;-66
2021/05/04 03:24:38;;;;;;;4.30;1.43;;;9.50;92.90;;;;;;5049164;28;20170;-66
2021/05/04 03:27:04;;;;;;;4.40;1.13;;;9.50;92.90;;;;;;5032682;28;20196;-67
2021/05/04 03:29:30;;;;;;;3.37;1.13;;;9.40;93.40;;;;;;5048832;28;20341;-66
2021/05/04 03:31:55;;;;;;;3.40;1.10;;;9.40;93.30;;;;;;5032605;28;20435;-65
2021/05/04 03:34:21;;;;;;;3.40;1.20;;;9.40;93.50;;;;;;5033713;28;20178;-66
2021/05/04 03:36:47;;;;;;;3.00;0.83;;;9.40;93.40;;;;;;5020459;28;20179;-65
2021/05/04 03:39:12;;;;;;;3.50;1.07;;;9.30;93.30;;;;;;5013729;28;20183;-66
2021/05/04 03:41:38;;;;;;;3.93;1.83;;;9.30;93.30;;;;;;5024220;28;20197;-66
2021/05/04 03:44:04;;;;;;;3.20;0.70;;;9.40;93.30;;;;;;5033645;28;20176;-66
2021/05/04 03:46:29;;;;;;;3.13;0.97;;;9.30;93.30;;;;;;5030600;28;20208;-66
2021/05/04 03:48:55;;;;;;;3.00;0.83;;;9.30;93.50;;;;;;5033387;28;20432;-66
2021/05/04 03:51:20;;;;;;;3.10;0.73;;;9.20;93.60;;;;;;5032803;28;20239;-66
2021/05/04 03:53:46;;;;;;;4.37;1.43;;;9.30;93.30;;;;;;5033225;28;20259;-67
2021/05/04 03:56:12;;;;;;;3.17;1.13;;;9.30;93.40;;;;;;5027093;28;20218;-66
2021/05/04 03:58:37;;;;;;;4.20;1.80;;;9.30;93.40;;;;;;5013795;28;20192;-67
2021/05/04 04:01:03;;;;;;;4.10;1.50;;;9.30;93.40;;;;;;5024075;28;20756;-66
2021/05/04 04:03:29;;;;;;;3.40;1.20;;;9.30;93.30;;;;;;5013601;28;20530;-65
2021/05/04 04:05:56;;;;;;;3.43;1.33;;;9.30;93.60;;;;;;5012044;28;20176;-66
2021/05/04 04:08:22;;;;;;;3.00;0.65;;;9.40;93.10;;;;;;5019614;28;20203;-68
2021/05/04 04:10:47;;;;;;;3.25;1.45;;;9.40;92.90;;;;;;5032302;28;20182;-65
2021/05/04 04:13:13;;;;;;;3.80;1.30;;;9.50;93.00;;;;;;5033294;28;20170;-67
2021/05/04 04:15:39;;;;;;;3.00;0.80;;;9.60;92.50;;;;;;5030363;28;20174;-67
2021/05/04 04:18:05;;;;;;;2.80;0.50;;;9.60;92.50;;;;;;5032632;28;20320;-67
2021/05/04 04:20:31;;;;;;;4.17;1.30;;;9.70;92.40;;;;;;5020322;28;20437;-65
2021/05/04 04:22:56;;;;;;;3.67;1.60;;;9.70;92.40;;;;;;5016439;28;20208;-66
2021/05/04 04:25:22;;;;;;;3.07;0.70;;;9.70;92.10;;;;;;5025996;28;20183;-66
2021/05/04 04:27:48;;;;;;;3.17;0.83;;;9.80;92.10;;;;;;5016814;28;20167;-67
2021/05/04 04:30:15;;;;;;;3.13;0.87;;;9.80;92.10;;;;;;5025982;28;20662;-67
2021/05/04 04:32:41;;;;;;;3.00;0.60;;;9.70;92.10;;;;;;5036910;28;20177;-67
2021/05/04 04:35:07;;;;;;;3.60;1.08;;;9.70;92.20;;;;;;5028999;28;20182;-65
2021/05/04 04:37:33;;;;;;;3.20;1.10;;;9.80;92.30;;;;;;5018062;28;20270;-66
2021/05/04 04:39:58;;;;;;;4.23;1.10;;;9.80;92.10;;;;;;5030064;28;20281;-66
2021/05/04 04:42:24;;;;;;;3.30;1.03;;;9.80;92.20;;;;;;5017110;28;20208;-68
2021/05/04 04:44:50;;;;;;;3.47;1.13;;;9.90;92.40;;;;;;5020409;28;20173;-66
2021/05/04 04:47:15;;;;;;;3.70;1.37;;;9.80;92.20;;;;;;5036059;28;20173;-66
2021/05/04 04:49:41;;;;;;;3.43;0.90;;;9.80;92.20;;;;;;5035560;28;20214;-67
2021/05/04 04:52:07;;;;;;;3.67;1.17;;;9.90;92.20;;;;;;5036783;28;20697;-64
2021/05/04 04:54:33;;;;;;;2.87;0.60;;;9.90;92.10;;;;;;5035254;28;20193;-66
2021/05/04 04:56:59;;;;;;;3.17;1.10;;;10.00;91.50;;;;;;5016302;28;20253;-66
2021/05/04 04:59:25;;;;;;;3.70;1.30;;;10.00;91.30;;;;;;5018214;28;20212;-65
2021/05/04 05:01:51;;;;;;;2.87;0.70;;;10.10;91.20;;;;;;5035489;28;20223;-66
2021/05/04 05:04:16;;;;;;;2.90;0.60;;;10.20;91.20;;;;;;5036358;28;20404;-64
2021/05/04 05:06:43;;;;;;;4.23;0.90;;;10.30;90.90;;;;;;5018123;28;20202;-65
2021/05/04 05:09:09;;;;;;;3.20;1.20;;;10.40;91.10;;;;;;5016422;28;20187;-66
2021/05/04 05:11:36;;;;;;;3.20;0.85;;;10.50;90.60;;;;;;5030608;28;20201;-65
2021/05/04 05:14:07;;;;;;;2.90;0.75;;;10.60;90.60;;;;;;5035768;28;20231;-66
2021/05/04 05:16:33;;;;;;;4.25;2.10;;;10.80;90.20;;;;;;5034549;28;20261;-66
2021/05/04 05:18:59;;;;;;;4.17;1.17;;;10.90;89.70;;;;;;5036206;28;20605;-65
2021/05/04 05:21:25;;;;;;;3.40;1.07;;;11.10;90.00;;;;;;5022181;28;20206;-65
2021/05/04 05:23:55;;;;;;;3.80;0.93;;;11.10;90.20;;;;;;5014897;28;20175;-66
2021/05/04 05:26:20;;;;;;;3.60;1.33;;;11.20;88.80;;;;;;5027747;28;20411;-66
2021/05/04 05:28:46;;;;;;;3.20;0.70;;;11.30;89.40;;;;;;5035510;28;20192;-66
2021/05/04 05:31:12;;;;;;;3.10;0.90;;;11.40;89.00;;;;;;5024764;28;20429;-64
2021/05/04 05:33:38;;;;;;;3.53;1.33;;;11.50;88.30;;;;;;5016538;28;20254;-65
2021/05/04 05:36:04;;;;;;;3.20;1.17;;;11.50;88.30;;;;;;5022671;28;20521;-65
2021/05/04 05:38:30;;;;;;;3.67;1.38;;;11.60;87.60;;;;;;5035450;28;20198;-65
2021/05/04 05:40:57;;;;;;;3.37;1.50;;;11.60;87.00;;;;;;5027760;28;20170;-66
2021/05/04 05:43:23;;;;;;;3.78;1.50;;;11.80;86.60;;;;;;5019911;28;20417;-65
2021/05/04 05:45:50;;;;;;;4.18;1.40;;;11.80;87.10;;;;;;5027892;28;20521;-65
2021/05/04 05:48:15;;;;;;;5.07;1.10;;;11.90;86.70;;;;;;5015909;28;20277;-66
2021/05/04 05:50:41;;;;;;;3.10;1.00;;;12.00;86.20;;;;;;5026654;28;20370;-66
2021/05/04 05:53:07;;;;;;;3.80;1.20;;;12.00;86.00;;;;;;5015586;28;20398;-66
2021/05/04 05:55:33;;;;;;;4.27;0.90;;;12.10;85.90;;;;;;5016478;28;20420;-67
2021/05/04 05:57:59;;;;;;;3.10;0.90;;;12.10;85.80;;;;;;5023402;28;20188;-67
2021/05/04 06:00:25;;;;;;;3.43;1.37;;;12.20;84.60;;;;;;5031624;28;20475;-66
2021/05/04 06:02:51;;;;;;;3.08;0.98;;;12.30;84.90;;;;;;5015175;28;20540;-66
2021/05/04 06:05:17;;;;;;;4.40;1.30;;;12.30;84.90;;;;;;5016662;28;20209;-67
2021/05/04 06:07:42;;;;;;;3.40;1.20;;;12.40;85.00;;;;;;5034688;28;20248;-66
2021/05/04 06:10:09;;;;;;;8.13;2.40;;;12.40;85.10;;;;;;5034445;28;20668;-67
2021/05/04 06:12:35;;;;;;;3.75;1.10;;;12.50;84.30;;;;;;5022245;28;20193;-66
2021/05/04 06:15:01;;;;;;;3.60;1.13;;;12.50;83.90;;;;;;5023439;28;20209;-66
2021/05/04 06:17:27;;;;;;;4.30;2.00;;;12.60;83.40;;;;;;5014422;28;20174;-65
2021/05/04 06:19:52;;;;;;;4.77;2.20;;;12.70;83.30;;;;;;5018953;28;20795;-66
2021/05/04 06:22:18;;;;;;;3.50;1.20;;;12.70;83.40;;;;;;5034202;28;20659;-66
2021/05/04 06:24:44;;;;;;;3.33;0.90;;;12.80;83.40;;;;;;5025077;28;20178;-68
2021/05/04 06:27:09;;;;;;;4.17;0.93;;;12.80;83.00;;;;;;5015398;28;20421;-67
2021/05/04 06:29:35;;;;;;;4.10;1.60;;;12.90;83.70;;;;;;5014742;28;20919;-66
2021/05/04 06:32:10;;;;;;;4.40;2.27;;;13.00;83.50;;;;;;5015622;28;20187;-68
2021/05/04 06:34:37;;;;;;;4.65;1.10;;;13.00;83.20;;;;;;5017903;28;20173;-66
2021/05/04 06:37:03;;;;;;;4.13;1.33;;;13.10;82.50;;;;;;5021615;28;20344;-66
2021/05/04 06:39:29;;;;;;;4.50;1.92;;;13.20;81.10;;;;;;5014516;28;20434;-66
2021/05/04 06:41:55;;;;;;;4.60;1.45;;;13.20;81.80;;;;;;5024849;28;20888;-66
2021/05/04 06:44:21;;;;;;;3.20;1.27;;;13.30;80.70;;;;;;5035151;28;20166;-68
2021/05/04 06:46:47;;;;;;;4.70;1.63;;;13.30;82.40;;;;;;5032484;28;20252;-67
2021/05/04 06:49:12;;;;;;;3.47;0.90;;;13.30;80.80;;;;;;5035819;28;20672;-67
2021/05/04 06:51:38;;;;;;;3.70;1.20;;;13.40;81.10;;;;;;5047408;28;20198;-69
2021/05/04 06:54:13;;;;;;;4.53;1.23;;;13.40;81.60;;;;;;5033581;28;20175;-70
2021/05/04 06:56:40;;;;;;;2.95;0.93;;;13.40;80.70;;;;;;5043610;28;20194;-65
2021/05/04 06:59:06;;;;;;;8.73;1.27;;;13.50;79.80;;;;;;5040864;28;20663;-65
2021/05/04 07:01:33;;;;;;;4.47;1.40;;;13.50;79.40;;;;;;5053672;28;20458;-67
2021/05/04 07:03:59;;;;;;;3.88;1.20;;;13.50;79.70;;;;;;5038386;28;20179;-66
2021/05/04 07:06:25;;;;;;;3.60;1.30;;;13.60;80.60;;;;;;5031852;28;20232;-68
2021/05/04 07:08:50;;;;;;;3.40;1.10;;;13.60;79.80;;;;;;5031067;28;20192;-69
2021/05/04 07:11:16;;;;;;;2.90;0.77;;;13.70;79.00;;;;;;5033421;28;20182;-66
2021/05/04 07:13:43;;;;;;;4.63;1.53;;;13.80;79.00;;;;;;5033422;28;20174;-69
2021/05/04 07:16:09;;;;;;;2.80;0.83;;;13.90;78.10;;;;;;5017373;28;20177;-68
2021/05/04 07:18:35;;;;;;;3.90;1.10;;;14.00;76.80;;;;;;5026175;28;20445;-66
2021/05/04 07:21:07;;;;;;;2.70;0.73;;;14.00;77.30;;;;;;5033120;28;20172;-63
2021/05/04 07:23:33;;;;;;;4.03;1.33;;;14.20;76.60;;;;;;5021510;28;20414;-67
2021/05/04 07:26:00;;;;;;;3.13;1.03;;;14.30;75.50;;;;;;5015485;28;20951;-68
2021/05/04 07:28:26;;;;;;;3.30;0.97;;;14.40;75.30;;;;;;5023544;28;20449;-67
2021/05/04 07:30:53;;;;;;;4.77;1.43;;;14.50;76.80;;;;;;5029615;28;20429;-69
2021/05/04 07:33:18;;;;;;;3.70;1.40;;;14.60;76.00;;;;;;5052129;28;20493;-69
2021/05/04 07:35:44;;;;;;;3.10;1.10;;;14.70;74.80;;;;;;5048201;28;20584;-66
2021/05/04 07:38:10;;;;;;;4.10;1.37;;;14.80;74.30;;;;;;5033058;28;20499;-67
2021/05/04 07:40:37;;;;;;;3.83;1.83;;;15.10;75.00;;;;;;5032411;28;20181;-68
2021/05/04 07:43:02;;;;;;;2.90;1.03;;;15.30;76.10;;;;;;5031284;28;20618;-68
2021/05/04 07:45:28;;;;;;;4.20;1.30;;;15.50;75.80;;;;;;5030670;28;20521;-68
2021/05/04 07:47:56;;;;;;;3.27;1.23;;;15.60;72.90;;;;;;5032784;28;20248;-66
2021/05/04 07:50:23;;;;;;;3.10;0.97;;;15.80;73.60;;;;;;5032508;28;20184;-66
2021/05/04 07:52:49;;;;;;;5.03;1.30;;;16.00;73.30;;;;;;5030793;28;20498;-66
2021/05/04 07:55:15;;;;;;;4.20;1.00;;;16.40;71.40;;;;;;5033388;28;20401;-67
2021/05/04 07:57:40;;;;;;;2.83;1.03;;;16.80;71.00;;;;;;5022337;28;20174;-68
2021/05/04 08:00:06;;;;;;;5.73;2.20;;;17.30;68.50;;;;;;5043264;28;20506;-69
2021/05/04 08:02:32;;;;;;;3.47;1.50;;;17.50;68.40;;;;;;5052921;28;20198;-67
2021/05/04 08:04:58;;;;;;;3.50;1.40;;;17.80;67.20;;;;;;5023159;28;20496;-66
2021/05/04 08:07:23;;;;;;;3.17;1.20;;;17.80;65.80;;;;;;5022555;28;20175;-66
2021/05/04 08:09:49;;;;;;;3.43;1.30;;;17.70;66.50;;;;;;5037014;28;20186;-66
2021/05/04 08:12:15;;;;;;;4.03;1.70;;;17.70;66.50;;;;;;5038803;28;20186;-70
2021/05/04 08:14:40;;;;;;;3.30;1.37;;;17.70;65.50;;;;;;5056935;28;20656;-67
2021/05/04 08:17:12;;;;;;;3.07;1.10;;;17.70;64.90;;;;;;5041010;28;20656;-68
2021/05/04 08:19:37;;;;;;;2.97;1.20;;;17.70;65.20;;;;;;5052484;28;20194;-65
2021/05/04 08:22:03;;;;;;;3.57;1.30;;;17.60;64.40;;;;;;5056679;28;20445;-67
2021/05/04 08:24:28;;;;;;;5.20;1.70;;;17.50;65.40;;;;;;5056384;28;20170;-68
2021/05/04 08:26:54;;;;;;;3.33;0.97;;;17.60;64.30;;;;;;5042417;28;20172;-67
2021/05/04 08:29:20;;;;;;;2.90;1.03;;;17.80;64.10;;;;;;5036038;28;20228;-64
2021/05/04 08:31:45;;;;;;;3.00;1.30;;;18.20;63.00;;;;;;5036446;28;20178;-65
2021/05/04 08:34:11;;;;;;;3.00;1.20;;;18.60;62.30;;;;;;5042517;28;20665;-64
2021/05/04 08:36:37;;;;;;;5.77;2.23;;;19.00;60.60;;;;;;5055925;28;20200;-68
2021/05/04 08:39:03;;;;;;;3.00;1.10;;;19.30;61.00;;;;;;5050647;28;20226;-66
2021/05/04 08:41:29;;;;;;;2.80;0.90;;;19.70;60.90;;;;;;5040190;28;20262;-67
2021/05/04 08:43:55;;;;;;;3.17;1.10;;;20.40;58.30;;;;;;5056124;28;20413;-68
2021/05/04 08:46:23;;;;;;;3.10;1.27;;;21.00;58.40;;;;;;5039891;28;20426;-64
2021/05/04 08:48:49;;;;;;;3.10;1.17;;;21.80;57.90;;;;;;5036140;28;20615;-64
2021/05/04 08:51:16;;;;;;;3.20;1.03;;;22.70;56.30;;;;;;5035796;28;20986;-66
2021/05/04 08:53:42;;;;;;;2.70;0.97;;;23.20;55.00;;;;;;5036367;28;20420;-65
2021/05/04 08:56:11;;;;;;;2.60;0.80;;;23.40;52.60;;;;;;5046255;28;20782;-65
2021/05/04 08:58:37;;;;;;;3.10;1.23;;;23.60;52.80;;;;;;5055880;28;20433;-64
2021/05/04 09:01:03;;;;;;;3.43;1.10;;;23.90;51.00;;;;;;5039653;28;20439;-67
2021/05/04 09:03:34;;;;;;;2.73;1.13;;;24.30;50.80;;;;;;5026313;28;20186;-67
2021/05/04 09:08:34;;;;;;;2.60;1.13;;;24.60;50.70;;;;;;5011519;28;20452;-67
2021/05/04 09:11:36;;;;;;;2.70;1.20;;;24.70;49.50;;;;;;5016814;28;20830;-66
2021/05/04 09:16:55;;;;;;;2.70;0.87;;;23.60;50.00;;;;;;5023930;28;20436;-65
2021/05/04 09:19:36;;;;;;;2.70;1.20;;;23.20;49.70;;;;;;5021084;28;20429;-65
2021/05/04 09:22:02;;;;;;;3.17;1.30;;;22.60;50.70;;;;;;5017907;28;20499;-63
2021/05/04 09:24:41;;;;;;;2.93;1.00;;;22.00;51.30;;;;;;5018500;28;20863;-64
2021/05/04 09:27:10;;;;;;;2.70;1.07;;;21.50;50.90;;;;;;5020093;28;20213;-64
2021/05/04 09:29:41;;;;;;;4.43;1.53;;;21.00;51.50;;;;;;5019877;28;20449;-63
2021/05/04 09:32:18;;;;;;;3.33;1.23;;;20.60;52.50;;;;;;5015409;28;21057;-63
2021/05/04 09:34:55;;;;;;;3.33;1.30;;;20.10;52.70;;;;;;5019604;28;20899;-64
2021/05/04 09:37:45;;;;;;;3.00;1.40;;;19.80;53.40;;;;;;5019328;28;20399;-65
2021/05/04 09:40:24;;;;;;;3.77;1.67;;;19.80;54.30;;;;;;5020673;28;20432;-63
2021/05/04 09:43:00;;;;;;;2.70;1.23;;;20.40;54.40;;;;;;5019949;28;20493;-64
2021/05/04 09:45:26;;;;;;;2.80;1.00;;;21.20;53.10;;;;;;5019072;28;20950;-65
2021/05/04 09:48:17;;;;;;;4.20;1.53;;;22.10;51.80;;;;;;5019435;28;20526;-65
2021/05/04 09:51:16;;;;;;;2.90;1.20;;;22.90;51.40;;;;;;5014034;28;20774;-63
2021/05/04 09:53:49;;;;;;;2.60;1.00;;;23.60;49.70;;;;;;5028514;28;20444;-66
2021/05/04 09:56:17;;;;;;;3.83;1.30;;;24.30;50.00;;;;;;5034799;28;20471;-67
2021/05/04 09:58:48;;;;;;;2.87;1.00;;;24.90;49.40;;;;;;5027876;28;20448;-68
2021/05/04 10:01:16;;;;;;;2.70;1.17;;;25.30;48.40;;;;;;5033600;28;20457;-67
2021/05/04 10:03:44;;;;;;;2.53;1.17;;;25.60;47.40;;;;;;5018221;28;20500;-66
2021/05/04 10:06:12;;;;;;;4.00;1.40;;;25.80;46.10;;;;;;5044243;28;20394;-63
2021/05/04 10:08:39;;;;;;;2.60;0.97;;;25.90;46.80;;;;;;5031420;28;20455;-68
2021/05/04 10:11:09;;;;;;;2.33;1.00;;;25.70;46.20;;;;;;5028663;28;20484;-66
2021/05/04 10:13:36;;;;;;;2.80;1.30;;;25.40;45.90;;;;;;5024507;28;20395;-66
2021/05/04 10:16:04;;;;;;;3.17;1.77;;;25.00;47.10;;;;;;5026260;28;20488;-67
2021/05/04 10:18:30;;;;;;;2.60;1.00;;;24.80;47.20;;;;;;5022846;28;20448;-67
2021/05/04 10:20:59;;;;;;;2.53;0.90;;;24.60;45.90;;;;;;5023602;28;20510;-66
2021/05/04 10:23:29;;;;;;;2.40;1.03;;;24.40;47.20;;;;;;5034751;28;20400;-66
2021/05/04 10:25:59;;;;;;;2.73;1.00;;;24.40;46.80;;;;;;5037995;28;20405;-65
2021/05/04 10:28:33;;;;;;;2.60;1.13;;;24.20;45.80;;;;;;5023310;28;20520;-65
2021/05/04 10:31:00;;;;;;;2.97;1.10;;;24.20;47.00;;;;;;5026756;28;20873;-63
2021/05/04 10:33:32;;;;;;;2.70;1.00;;;24.30;46.90;;;;;;5053954;28;20784;-66
2021/05/04 10:35:58;;;;;;;4.70;1.10;;;24.00;46.40;;;;;;5026584;28;20402;-63
2021/05/04 10:38:24;;;;;;;2.80;1.20;;;23.80;46.50;;;;;;5022081;28;20789;-65
2021/05/04 10:41:05;;;;;;;2.20;0.77;;;23.70;46.70;;;;;;5024085;28;20426;-67
2021/05/04 10:43:30;;;;;;;2.80;0.90;;;23.70;46.70;;;;;;5048634;28;20173;-65
2021/05/04 10:45:58;;;;;;;2.97;1.00;;;23.70;47.40;;;;;;5024732;28;20491;-63
2021/05/04 10:48:50;;;;;;;3.33;1.30;;;23.70;47.20;;;;;;5023324;28;20199;-67
2021/05/04 10:51:17;;;;;;;3.40;1.17;;;23.50;47.10;;;;;;5022079;28;20425;-65
2021/05/04 10:53:49;;;;;;;2.40;0.80;;;23.30;47.50;;;;;;5032850;28;20417;-67
2021/05/04 10:56:16;;;;;;;2.60;0.90;;;23.00;47.70;;;;;;5031165;28;20396;-69
2021/05/04 10:59:00;;;;;;;2.60;1.13;;;22.80;47.80;;;;;;5023496;28;20909;-67
2021/05/04 11:01:26;;;;;;;4.10;1.17;;;22.80;47.40;;;;;;5019202;28;20478;-66
2021/05/04 11:03:54;;;;;;;2.50;0.93;;;22.70;47.50;;;;;;5044150;28;20422;-66
2021/05/04 11:06:22;;;;;;;2.80;1.17;;;22.60;48.40;;;;;;5025676;28;20413;-69
2021/05/04 11:08:51;;;;;;;2.93;0.90;;;22.20;48.00;;;;;;5022932;28;20447;-68
2021/05/04 11:11:35;;;;;;;3.03;0.80;;;21.90;47.90;;;;;;5028467;28;20809;-65
2021/05/04 11:14:16;;;;;;;2.40;0.90;;;21.70;47.80;;;;;;5047240;28;20849;-67
2021/05/04 11:16:47;;;;;;;2.80;1.00;;;21.50;48.70;;;;;;5034932;28;20419;-69
2021/05/04 11:19:29;;;;;;;4.03;1.40;;;21.40;48.70;;;;;;5032027;28;20447;-65
2021/05/04 11:21:57;;;;;;;2.70;1.10;;;21.30;49.50;;;;;;5031799;28;20482;-68
2021/05/04 11:24:41;;;;;;;3.93;2.30;;;21.20;50.30;;;;;;5032709;28;20486;-64
2021/05/04 11:27:10;;;;;;;3.60;1.53;;;21.10;49.30;;;;;;5032274;28;20472;-64
2021/05/04 11:29:36;;;;;;;2.80;0.90;;;20.90;49.20;;;;;;5033220;28;20427;-64
2021/05/04 11:32:13;;;;;;;2.50;1.10;;;20.70;49.30;;;;;;5033882;28;20446;-66
2021/05/04 11:34:52;;;;;;;2.87;1.03;;;20.60;49.30;;;;;;5027914;28;20520;-66
2021/05/04 11:37:22;;;;;;;2.47;0.93;;;20.60;49.60;;;;;;5028331;28;20438;-66
2021/05/04 11:39:52;;;;;;;2.20;0.90;;;20.70;49.80;;;;;;5032039;28;20444;-68
2021/05/04 11:42:30;;;;;;;3.07;1.30;;;20.70;50.30;;;;;;5033539;28;20522;-66
2021/05/04 11:45:21;;;;;;;2.57;1.53;;;20.70;49.70;;;;;;5027788;28;20470;-66
2021/05/04 11:47:54;;;;;;;2.30;0.90;;;20.50;49.70;;;;;;5013182;28;20769;-67
2021/05/04 11:50:23;;;;;;;4.30;1.00;;;20.20;50.80;;;;;;5021428;28;20531;-65
2021/05/04 11:52:51;;;;;;;2.73;1.33;;;19.90;51.00;;;;;;5013719;28;20761;-68
2021/05/04 11:55:22;;;;;;;3.50;1.60;;;19.70;51.60;;;;;;5019630;28;20507;-66
2021/05/04 11:57:54;;;;;;;2.70;1.30;;;19.70;52.20;;;;;;5021071;28;20451;-66
2021/05/04 12:00:22;;;;;;;2.90;1.30;;;19.70;52.40;;;;;;5027913;28;20914;-65
2021/05/04 12:02:51;;;;;;;2.40;0.93;;;19.50;53.00;;;;;;5014214;28;20812;-65
2021/05/04 12:05:26;;;;;;;2.83;1.23;;;19.40;53.20;;;;;;5023743;28;20439;-64
2021/05/04 12:07:52;;;;;;;2.97;1.30;;;19.40;53.90;;;;;;5013020;28;20480;-66
2021/05/04 12:10:18;;;;;;;4.47;1.20;;;19.40;54.20;;;;;;5014318;28;20767;-67
2021/05/04 12:12:51;;;;;;;3.10;1.10;;;19.40;54.20;;;;;;5027443;28;20517;-65
2021/05/04 12:15:22;;;;;;;4.00;1.20;;;19.30;53.90;;;;;;5018949;28;20178;-64
2021/05/04 12:17:55;;;;;;;3.17;1.20;;;19.20;54.10;;;;;;5023839;28;20424;-63
2021/05/04 12:20:22;;;;;;;3.33;1.40;;;19.00;54.90;;;;;;5020849;28;20466;-65
2021/05/04 12:22:50;;;;;;;2.50;1.10;;;19.00;55.50;;;;;;5035717;28;20452;-65
2021/05/04 12:25:22;;;;;;;2.43;0.80;;;19.00;55.30;;;;;;5020267;28;20495;-64
2021/05/04 12:27:49;;;;;;;4.17;1.20;;;19.00;56.20;;;;;;5025841;28;20393;-61
2021/05/04 12:30:20;;;;;;;2.60;1.13;;;19.00;56.20;;;;;;5025006;28;20416;-63
2021/05/04 12:32:48;;;;;;;3.57;2.07;;;18.90;56.50;;;;;;5029968;28;20408;-64
2021/05/04 12:35:20;;;;;;;2.87;0.93;;;18.70;56.70;;;;;;5018372;28;21011;-63
2021/05/04 12:37:48;;;;;;;4.70;1.53;;;18.60;57.30;;;;;;5028678;28;20800;-65
2021/05/04 12:40:16;;;;;;;3.90;1.13;;;18.80;57.30;;;;;;5021252;28;20416;-63
2021/05/04 12:42:44;;;;;;;2.27;0.80;;;18.90;58.00;;;;;;5033458;28;20550;-64
2021/05/04 12:45:15;;;;;;;5.60;2.10;;;19.10;59.20;;;;;;5048211;28;20424;-65
2021/05/04 12:47:54;;;;;;;4.10;1.93;;;19.20;59.20;;;;;;5034116;28;20415;-66
2021/05/04 12:50:31;;;;;;;3.70;1.43;;;19.20;59.40;;;;;;5035964;28;20436;-67
2021/05/04 12:52:57;;;;;;;2.87;1.30;;;19.10;60.40;;;;;;5028587;28;20796;-65
2021/05/04 12:55:23;;;;;;;3.00;1.27;;;19.10;61.30;;;;;;5034651;28;20435;-64
2021/05/04 12:58:09;;;;;;;3.80;1.53;;;19.30;61.10;;;;;;5033811;28;20643;-64
2021/05/04 13:00:34;;;;;;;3.30;1.50;;;19.40;62.70;;;;;;5027653;28;20409;-65